Time;durP1;ratioP1;P1;durP2;ratioP2;P2;SDS_P1;SDS_P2;PMS_P1;PMS_P2;Temp;Humidity;BMP_temperature;BMP_pressure;BME280_temperature;BME280_humidity;BME280_pressure;Samples;Min_cycle;Max_cycle;Signal;HPM_P1;HPM_P2
2023/07/17 00:04:20;;;;;;;12.82;3.95;;;;;;;27.31;93.33;100617.47;21120761;28;20048;-76
2023/07/17 00:14:42;;;;;;;11.73;4.05;;;;;;;27.28;96.57;100606.81;21146182;28;20047;-75
2023/07/17 00:25:08;;;;;;;9.20;4.28;;;;;;;27.26;100.00;100600.59;21193463;27;20192;-76
2023/07/17 00:35:30;;;;;;;10.25;4.05;;;;;;;27.24;99.47;100594.41;21133565;28;20055;-75
2023/07/17 00:45:56;;;;;;;12.57;4.15;;;;;;;27.22;99.41;100590.91;21131711;28;20055;-76
2023/07/17 00:56:19;;;;;;;9.80;3.67;;;;;;;27.15;99.72;100587.66;21135879;28;20210;-76
2023/07/17 01:06:43;;;;;;;11.90;3.63;;;;;;;27.12;98.58;100598.66;21147181;28;20051;-75
2023/07/17 01:17:06;;;;;;;12.20;4.45;;;;;;;27.16;99.22;100591.25;21133208;28;20062;-76
2023/07/17 01:27:30;;;;;;;13.27;4.93;;;;;;;27.10;100.00;100597.00;21164662;27;20086;-75
2023/07/17 01:37:54;;;;;;;13.45;4.30;;;;;;;27.02;100.00;100601.97;21216848;27;20079;-75
2023/07/17 01:48:19;;;;;;;10.90;4.60;;;;;;;26.96;100.00;100604.06;21215628;27;20487;-76
2023/07/17 01:58:42;;;;;;;12.30;4.57;;;;;;;26.90;100.00;100604.41;21213638;27;20104;-76
2023/07/17 02:09:06;;;;;;;14.20;4.78;;;;;;;26.83;100.00;100599.38;21212908;27;20047;-75
2023/07/17 02:19:29;;;;;;;12.98;4.20;;;;;;;26.75;100.00;100593.47;21212331;27;20047;-75
2023/07/17 02:29:55;;;;;;;9.88;3.97;;;;;;;26.71;100.00;100603.63;21172464;27;20046;-76
2023/07/17 02:40:18;;;;;;;11.68;4.38;;;;;;;26.65;100.00;100594.94;21126846;28;20047;-75
2023/07/17 02:50:43;;;;;;;14.65;4.68;;;;;;;26.61;100.00;100596.03;21126082;28;20583;-75
2023/07/17 03:01:06;;;;;;;10.60;4.88;;;;;;;26.55;100.00;100597.25;21124406;28;20051;-75
2023/07/17 03:11:31;;;;;;;16.48;5.05;;;;;;;26.56;100.00;100605.31;21137825;28;20108;-76
2023/07/17 03:21:54;;;;;;;17.10;5.28;;;;;;;26.59;100.00;100636.75;21123249;28;20481;-75
2023/07/17 03:31:58;;;;;;;10.85;4.50;;;;;;;26.62;100.00;100641.13;21223269;27;20526;-76
2023/07/17 03:42:21;;;;;;;12.77;5.00;;;;;;;26.83;100.00;100640.00;21206891;27;20133;-76
2023/07/17 03:52:45;;;;;;;18.50;5.32;;;;;;;27.17;100.00;100663.50;21208278;27;20092;-75
2023/07/17 04:03:08;;;;;;;14.55;5.70;;;;;;;27.56;100.00;100661.31;21220215;27;20077;-76
2023/07/17 04:13:38;;;;;;;14.25;5.43;;;;;;;28.01;100.00;100660.50;21192367;27;20502;-76
2023/07/17 04:24:02;;;;;;;9.52;4.47;;;;;;;28.48;100.00;100663.16;21217899;27;20086;-75
2023/07/17 04:34:21;;;;;;;12.57;5.27;;;;;;;28.93;100.00;100674.94;21212728;27;20543;-75
2023/07/17 04:44:44;;;;;;;15.05;5.45;;;;;;;29.29;100.00;100678.06;21220040;27;20047;-76
2023/07/17 04:55:11;;;;;;;14.02;5.75;;;;;;;29.81;100.00;100680.16;21212773;27;20049;-75
2023/07/17 05:05:33;;;;;;;19.13;6.22;;;;;;;30.25;100.00;100692.72;21211043;27;20075;-75
2023/07/17 05:15:58;;;;;;;15.57;6.35;;;;;;;28.32;100.00;100699.47;21153656;27;20068;-76
2023/07/17 05:26:21;;;;;;;12.43;7.18;;;;;;;28.91;100.00;100712.22;21192414;27;20130;-76
2023/07/17 05:36:45;;;;;;;18.80;11.15;;;;;;;29.66;100.00;100716.56;21131868;28;20094;-75
2023/07/17 05:46:48;;;;;;;18.35;11.90;;;;;;;30.21;100.00;100708.38;21141065;28;20048;-76
2023/07/17 05:57:13;;;;;;;19.20;11.82;;;;;;;30.87;100.00;100712.97;21130826;28;20052;-75
2023/07/17 06:07:36;;;;;;;21.80;12.70;;;;;;;31.34;100.00;100708.78;21148753;27;20084;-76
2023/07/17 06:18:00;;;;;;;17.70;11.25;;;;;;;31.92;100.00;100725.44;21223345;27;20467;-76
2023/07/17 06:28:14;;;;;;;17.83;11.70;;;;;;;32.43;100.00;100738.94;21187423;27;20047;-76
2023/07/17 06:38:38;;;;;;;17.27;10.30;;;;;;;33.04;100.00;100734.22;21132745;28;20062;-75
2023/07/17 06:49:01;;;;;;;14.68;10.52;;;;;;;33.11;100.00;100741.84;21123300;28;20579;-76
2023/07/17 06:59:28;;;;;;;17.38;11.65;;;;;;;33.28;100.00;100736.94;21140641;28;20054;-76
2023/07/17 07:09:50;;;;;;;16.88;9.93;;;;;;;33.47;100.00;100734.47;21138343;28;20050;-76
2023/07/17 07:20:15;;;;;;;15.30;7.57;;;;;;;33.49;94.90;100747.03;21151072;28;20515;-76
2023/07/17 07:30:30;;;;;;;16.35;6.82;;;;;;;33.62;89.98;100758.75;21195569;27;20050;-75
2023/07/17 07:40:54;;;;;;;12.20;6.15;;;;;;;33.69;81.07;100764.59;21221539;27;20050;-77
2023/07/17 07:51:16;;;;;;;15.00;7.00;;;;;;;33.69;78.00;100767.34;21221429;27;20051;-76
2023/07/17 08:01:39;;;;;;;10.70;5.70;;;;;;;34.24;69.28;100768.38;21219622;28;20555;-76
2023/07/17 08:12:02;;;;;;;17.92;6.55;;;;;;;34.42;64.66;100765.94;21219246;28;20048;-77
2023/07/17 08:22:26;;;;;;;13.23;6.25;;;;;;;34.86;66.31;100774.03;21219513;28;20047;-77
2023/07/17 08:32:48;;;;;;;15.23;5.63;;;;;;;34.54;67.00;100778.63;21219226;28;20076;-76
2023/07/17 08:43:12;;;;;;;11.02;4.93;;;;;;;34.56;62.04;100782.13;21204477;28;20075;-77
2023/07/17 08:53:36;;;;;;;13.13;4.70;;;;;;;34.87;55.98;100772.16;21219014;28;20440;-77
2023/07/17 09:03:40;;;;;;;15.70;3.93;;;;;;;35.08;53.06;100762.09;21240361;27;20106;-77
2023/07/17 09:14:03;;;;;;;9.25;3.70;;;;;;;35.49;50.93;100774.97;21221101;27;20115;-76
2023/07/17 09:24:27;;;;;;;10.40;4.18;;;;;;;35.78;46.95;100762.25;21150780;27;20051;-76
2023/07/17 09:35:04;;;;;;;10.07;4.20;;;;;;;35.89;44.68;100762.19;21189876;27;20051;-76
2023/07/17 09:45:30;;;;;;;10.98;4.03;;;;;;;36.11;43.77;100761.09;21130393;28;20772;-76
2023/07/17 09:55:54;;;;;;;11.77;4.18;;;;;;;35.74;43.98;100763.56;21143256;28;20059;-76
2023/07/17 10:06:19;;;;;;;;;;;;;;;36.25;41.83;100754.34;21163918;27;20096;-77
2023/07/17 10:16:42;;;;;;;8.98;3.92;;;;;;;36.01;39.04;100751.06;21209311;27;20272;-77
2023/07/17 10:27:07;;;;;;;12.10;3.87;;;;;;;36.44;40.02;100745.25;21210376;27;20050;-77
2023/07/17 10:37:41;;;;;;;12.65;3.90;;;;;;;36.59;40.36;100741.94;21223385;27;20046;-76
2023/07/17 10:48:07;;;;;;;10.18;3.78;;;;;;;37.06;39.31;100739.34;21222246;27;20070;-77
2023/07/17 10:58:30;;;;;;;10.93;3.67;;;;;;;36.98;38.32;100734.59;21222827;27;20061;-76
2023/07/17 11:08:55;;;;;;;13.65;4.00;;;;;;;37.24;38.01;100728.47;21207548;27;20066;-76
2023/07/17 11:19:18;;;;;;;14.10;3.75;;;;;;;37.57;37.27;100722.47;21193219;27;20104;-76
2023/07/17 11:29:42;;;;;;;12.63;3.83;;;;;;;37.72;36.10;100726.47;21213197;27;20059;-77
2023/07/17 11:39:53;;;;;;;11.97;3.50;;;;;;;37.32;34.93;100726.72;21194393;27;20108;-76
2023/07/17 11:50:20;;;;;;;13.70;4.13;;;;;;;37.01;35.66;100733.44;21204638;27;20047;-76
2023/07/17 12:00:43;;;;;;;11.27;4.60;;;;;;;36.82;35.76;100726.06;21219573;27;20076;-76
2023/07/17 12:11:07;;;;;;;16.70;4.10;;;;;;;36.64;36.54;100730.50;21215174;27;20066;-78
2023/07/17 12:21:30;;;;;;;10.90;4.13;;;;;;;36.55;36.96;100729.50;21218073;28;20059;-77
2023/07/17 12:31:54;;;;;;;11.02;4.32;;;;;;;36.86;37.86;100738.50;21200193;28;20062;-76
2023/07/17 12:42:17;;;;;;;13.47;4.80;;;;;;;37.19;37.85;100744.59;21229534;27;20092;-76
2023/07/17 12:52:41;;;;;;;11.38;4.60;;;;;;;37.27;36.62;100741.97;21235188;27;20561;-76
2023/07/17 13:03:04;;;;;;;11.13;4.55;;;;;;;37.31;35.82;100746.16;21219153;27;20116;-77
2023/07/17 13:13:28;;;;;;;11.38;4.97;;;;;;;37.23;36.18;100727.59;21218445;27;20051;-77
2023/07/17 13:23:50;;;;;;;;;;;;;;;36.94;35.92;100716.63;21231683;27;20100;-77
2023/07/17 13:34:14;;;;;;;12.05;5.75;;;;;;;36.66;35.52;100712.88;21203568;27;19920;-77
2023/07/17 13:44:32;;;;;;;12.88;6.18;;;;;;;36.39;36.12;100709.94;21244948;27;20047;-77
2023/07/17 13:54:56;;;;;;;15.23;5.75;;;;;;;36.68;35.31;100713.59;21229672;27;20419;-77
2023/07/17 14:05:18;;;;;;;15.32;6.72;;;;;;;36.54;35.92;100724.13;21215513;27;20047;-78
2023/07/17 14:15:42;;;;;;;13.30;6.03;;;;;;;36.67;36.68;100708.25;21219949;27;20141;-76
2023/07/17 14:26:05;;;;;;;17.48;6.78;;;;;;;36.45;37.40;100709.34;21224774;27;20046;-76
2023/07/17 14:36:29;;;;;;;13.27;5.43;;;;;;;36.51;37.84;100707.91;21226074;27;20391;-76
2023/07/17 14:46:51;;;;;;;14.97;5.60;;;;;;;36.34;38.52;100696.63;21223871;27;20049;-76
2023/07/17 14:57:16;;;;;;;19.85;5.88;;;;;;;36.40;39.08;100695.16;21209227;27;20047;-77
2023/07/17 15:07:38;;;;;;;13.03;5.40;;;;;;;35.75;39.01;100676.50;21208285;27;20100;-76
2023/07/17 15:17:54;;;;;;;13.48;4.97;;;;;;;34.94;40.63;100669.97;21236893;27;20445;-76
2023/07/17 15:28:16;;;;;;;12.65;4.72;;;;;;;32.89;56.12;100677.97;21219960;27;20050;-76
2023/07/17 15:38:41;;;;;;;13.75;5.43;;;;;;;31.89;65.65;100676.50;21221239;27;20051;-74
2023/07/17 15:49:04;;;;;;;13.10;4.95;;;;;;;31.47;63.45;100677.75;21218956;27;20403;-74
2023/07/17 15:59:28;;;;;;;12.27;4.68;;;;;;;30.56;68.82;100678.78;21205485;27;20035;-75
2023/07/17 16:09:50;;;;;;;12.10;5.72;;;;;;;29.85;74.92;100667.25;21218870;27;20406;-76
2023/07/17 16:20:15;;;;;;;12.32;5.35;;;;;;;29.89;73.88;100669.66;21219411;27;20059;-75
2023/07/17 16:30:37;;;;;;;18.80;5.95;;;;;;;29.48;78.27;100674.19;21231812;27;20089;-75
2023/07/17 16:41:01;;;;;;;14.15;5.57;;;;;;;29.30;79.24;100674.38;21220533;27;20057;-74
2023/07/17 16:51:24;;;;;;;12.90;5.47;;;;;;;28.88;83.03;100690.66;21220239;27;20058;-75
2023/07/17 17:01:48;;;;;;;18.95;7.50;;;;;;;28.77;83.11;100682.28;21221493;27;20494;-74
2023/07/17 17:11:56;;;;;;;12.38;5.80;;;;;;;28.46;85.75;100680.50;21229972;27;20051;-75
2023/07/17 17:22:21;;;;;;;12.23;5.55;;;;;;;27.91;85.95;100681.00;21204420;27;20050;-75
2023/07/17 17:32:43;;;;;;;16.85;6.32;;;;;;;28.13;82.59;100677.91;21230109;27;20119;-74
2023/07/17 17:43:07;;;;;;;14.35;5.82;;;;;;;27.99;86.05;100662.44;21231442;27;20133;-74
2023/07/17 17:53:30;;;;;;;16.05;6.45;;;;;;;27.85;93.68;100662.34;21229955;27;20683;-75
2023/07/17 18:03:57;;;;;;;15.23;6.10;;;;;;;27.67;97.84;100658.84;21229013;27;20176;-74
2023/07/17 18:14:19;;;;;;;15.17;5.90;;;;;;;27.61;96.32;100651.06;21227926;27;20473;-76
2023/07/17 18:24:23;;;;;;;17.23;6.18;;;;;;;27.42;95.57;100666.59;21242045;27;20550;-75
2023/07/17 18:34:46;;;;;;;18.55;7.15;;;;;;;27.32;99.51;100670.75;21210339;27;20046;-75
2023/07/17 18:45:12;;;;;;;13.60;6.22;;;;;;;27.30;100.00;100665.44;21226102;27;20043;-75
2023/07/17 18:55:34;;;;;;;16.13;6.15;;;;;;;27.22;100.00;100669.53;21223987;27;20092;-74
2023/07/17 19:05:59;;;;;;;15.27;7.53;;;;;;;27.12;100.00;100677.28;21224572;27;20121;-75
2023/07/17 19:16:21;;;;;;;18.50;5.82;;;;;;;26.92;100.00;100682.88;21222972;27;20069;-75
2023/07/17 19:26:46;;;;;;;14.50;6.63;;;;;;;26.78;100.00;100672.75;21206901;27;20051;-75
2023/07/17 19:37:09;;;;;;;14.75;7.47;;;;;;;26.69;100.00;100672.38;21221038;27;20139;-74
2023/07/17 19:47:34;;;;;;;16.13;6.43;;;;;;;26.75;100.00;100672.91;21220686;27;20055;-75
2023/07/17 19:57:56;;;;;;;16.88;6.22;;;;;;;26.66;100.00;100667.97;21206904;27;20039;-75
2023/07/17 20:08:21;;;;;;;13.88;5.72;;;;;;;26.62;100.00;100668.22;21219278;27;20065;-74
2023/07/17 20:18:43;;;;;;;15.82;5.72;;;;;;;26.58;100.00;100662.94;21220221;27;20456;-75
2023/07/17 20:29:07;;;;;;;9.32;4.82;;;;;;;26.51;100.00;100657.97;21218427;28;20111;-75
2023/07/17 20:39:30;;;;;;;15.52;6.03;;;;;;;26.45;100.00;100642.88;21204515;28;20043;-74
2023/07/17 20:49:56;;;;;;;12.80;5.40;;;;;;;26.27;100.00;100651.06;21204967;28;20047;-74
2023/07/17 21:00:18;;;;;;;12.65;5.70;;;;;;;26.22;100.00;100637.75;21225124;27;20058;-74
2023/07/17 21:10:43;;;;;;;15.45;6.13;;;;;;;26.17;100.00;100642.53;21209910;27;20044;-75
2023/07/17 21:21:05;;;;;;;10.95;5.38;;;;;;;25.84;100.00;100645.09;21146756;28;20044;-75
2023/07/17 21:31:30;;;;;;;13.25;5.30;;;;;;;25.89;100.00;100645.75;21211513;27;20123;-74
2023/07/17 21:41:52;;;;;;;10.82;5.10;;;;;;;25.85;100.00;100638.75;21229585;27;20483;-74
2023/07/17 21:51:57;;;;;;;12.00;5.07;;;;;;;25.82;100.00;100633.47;21225871;27;20133;-75
2023/07/17 22:02:20;;;;;;;9.38;4.38;;;;;;;25.71;100.00;100639.41;21228767;27;20047;-74
2023/07/17 22:12:45;;;;;;;16.23;6.28;;;;;;;25.69;100.00;100624.19;21221950;27;20047;-74
2023/07/17 22:23:07;;;;;;;14.07;6.03;;;;;;;25.65;100.00;100618.09;21181129;27;20050;-75
2023/07/17 22:33:31;;;;;;;12.10;5.55;;;;;;;25.77;100.00;100619.31;21142110;27;20047;-75
2023/07/17 22:43:54;;;;;;;11.38;5.25;;;;;;;25.66;100.00;100614.44;21141083;28;20063;-74
2023/07/17 22:54:19;;;;;;;10.10;5.20;;;;;;;25.64;100.00;100602.81;21139669;28;20052;-75
2023/07/17 23:04:42;;;;;;;9.88;5.32;;;;;;;25.60;100.00;100601.19;21124174;28;20052;-75
2023/07/17 23:15:08;;;;;;;15.73;6.07;;;;;;;25.57;100.00;100586.91;21167154;27;20055;-75
2023/07/17 23:25:23;;;;;;;12.02;5.68;;;;;;;25.57;100.00;100576.09;21226680;27;20044;-75
2023/07/17 23:35:47;;;;;;;14.32;6.13;;;;;;;25.52;100.00;100573.63;21150980;28;20056;-76
2023/07/17 23:46:10;;;;;;;14.23;5.88;;;;;;;25.41;100.00;100560.63;21149893;28;20070;-75
2023/07/17 23:56:35;;;;;;;13.15;6.65;;;;;;;25.39;100.00;100553.56;21136243;28;20076;-76
